Maidstone, Canada
Current Conditions -  °F | °C
As of 4:00 PM on Wednesday 28 Jan 2015 (Local Time) from CYLL Reporting Station
Blowing Snow Blowing Snow  
Wind Chill: -2°   Ceiling: Unl
Heat Index: 12°   Visibility: 15mi
Dew Point:   Wind: 12mph
Humidity: 79%   Direction: 320°NW
Pressure: 30.26"   Gusts: 21mph
Location:  53.08°N, 109.3°W
Report Text: CYLL 282200Z 32010G18KT 15SM DRSN FEW250 M11/M14 A3026 RMK CI1 SLP296
Loading
Personal Weather Stations






























Interactive Weather Map New forecast layout! Learn more

10-Day Weather Forecast

Advertisements
Track Severe Weather on mobile